createdAt,value
2023-05-01T02:59:48.748Z,9.53
2023-05-01T03:17:21.291Z,9.57
2023-05-01T04:08:15.074Z,9.40
2023-05-01T04:14:23.314Z,9.36
2023-05-01T04:28:05.147Z,9.42
2023-05-01T04:35:09.506Z,9.42
2023-05-01T04:41:41.767Z,9.46
2023-05-01T04:44:18.635Z,9.49
2023-05-01T04:48:29.679Z,9.50
2023-05-01T04:52:27.530Z,9.36
2023-05-01T04:58:41.337Z,9.38
2023-05-01T05:01:17.995Z,9.49
2023-05-01T05:14:32.178Z,9.70
2023-05-01T05:21:31.328Z,9.78
2023-05-01T05:29:10.350Z,9.99
2023-05-01T05:32:46.299Z,9.99
2023-05-01T05:39:26.643Z,10.22
2023-05-01T05:42:17.886Z,10.29
2023-05-01T05:45:46.137Z,10.33
2023-05-01T05:49:02.328Z,10.45
2023-05-01T05:52:46.242Z,10.58
2023-05-01T05:55:50.064Z,10.65
2023-05-01T05:58:35.733Z,10.59
2023-05-01T06:01:48.752Z,10.52
2023-05-01T06:09:28.181Z,10.85
2023-05-01T06:15:11.225Z,10.99
2023-05-01T06:37:40.107Z,11.44
2023-05-01T06:40:36.965Z,11.50
2023-05-01T06:46:21.064Z,11.42
2023-05-01T06:49:44.046Z,11.67
2023-05-01T06:56:16.082Z,11.81
2023-05-01T06:59:22.035Z,11.97
2023-05-01T07:02:03.358Z,12.03
2023-05-01T07:04:37.615Z,11.97
2023-05-01T07:08:01.159Z,12.17
2023-05-01T07:18:26.393Z,12.67
2023-05-01T07:31:57.462Z,12.91
2023-05-01T08:53:18.220Z,20.97
2023-05-01T08:55:55.122Z,21.29
2023-05-01T08:58:28.152Z,20.84
2023-05-01T09:01:03.930Z,20.82
2023-05-01T09:07:22.287Z,21.12
2023-05-01T09:10:26.801Z,20.97
2023-05-01T09:13:07.723Z,20.84
2023-05-01T09:15:40.206Z,21.09
2023-05-01T09:18:13.250Z,21.00
2023-05-01T09:20:45.554Z,21.15
2023-05-01T09:23:18.359Z,21.27
2023-05-01T09:25:52.285Z,20.61
2023-05-01T09:28:44.647Z,20.88
2023-05-01T09:31:35.328Z,21.15
2023-05-01T09:34:08.082Z,21.22
2023-05-01T09:36:47.888Z,21.19
2023-05-01T09:39:24.521Z,21.03
2023-05-01T09:41:57.841Z,20.96
2023-05-01T09:44:45.493Z,21.01
2023-05-01T09:47:23.287Z,20.91
2023-05-01T09:49:58.074Z,20.95
2023-05-01T09:52:33.350Z,20.94
2023-05-01T09:55:17.425Z,20.87
2023-05-01T09:57:49.872Z,20.99
2023-05-01T10:00:22.534Z,20.96
2023-05-01T10:02:55.314Z,21.27
2023-05-01T10:05:27.781Z,21.19
2023-05-01T10:08:10.549Z,21.29
2023-05-01T10:10:47.365Z,21.49
2023-05-01T10:13:19.739Z,21.69
2023-05-01T10:15:52.086Z,21.54
2023-05-01T10:18:26.104Z,21.92
2023-05-01T10:21:01.298Z,22.11
2023-05-01T10:23:36.522Z,22.19
2023-05-01T10:26:10.212Z,22.43
2023-05-01T10:28:44.647Z,22.84
2023-05-01T10:31:17.417Z,23.68
2023-05-01T10:33:50.442Z,24.16
2023-05-01T10:36:32.439Z,25.05
2023-05-01T10:39:04.672Z,25.36
2023-05-01T10:42:06.258Z,25.07
2023-05-01T10:44:38.957Z,25.36
2023-05-01T10:47:39.770Z,25.90
2023-05-01T10:50:16.057Z,26.71
2023-05-01T10:53:12.967Z,27.28
2023-05-01T10:55:47.913Z,26.97
2023-05-01T10:58:38.913Z,26.89
2023-05-01T11:01:36.999Z,26.76
2023-05-01T11:04:27.573Z,27.28
2023-05-01T11:07:09.709Z,27.52
2023-05-01T11:09:57.785Z,28.19
2023-05-01T11:12:51.897Z,29.22
2023-05-01T11:15:35.348Z,29.74
2023-05-01T11:18:11.050Z,30.02
2023-05-01T11:20:48.243Z,30.53
2023-05-01T11:23:22.213Z,30.96
2023-05-01T11:26:05.074Z,31.40
2023-05-01T11:28:39.882Z,31.90
2023-05-01T11:31:24.064Z,31.88
2023-05-01T11:34:03.424Z,32.23
2023-05-01T11:36:56.017Z,32.20
2023-05-01T11:39:29.447Z,32.11
2023-05-01T11:42:14.309Z,30.73
2023-05-01T11:45:07.903Z,31.00
2023-05-01T11:47:40.798Z,31.36
2023-05-01T11:50:13.585Z,31.29
2023-05-01T11:52:55.549Z,31.48
2023-05-01T11:55:36.069Z,31.09
2023-05-01T11:58:08.587Z,30.66
2023-05-01T12:00:43.450Z,30.69
2023-05-01T12:03:16.191Z,30.63
2023-05-01T12:05:49.999Z,30.38
2023-05-01T12:08:24.532Z,30.78
2023-05-01T12:10:57.741Z,30.94
2023-05-01T12:13:30.205Z,30.96
2023-05-01T12:16:04.568Z,31.20
2023-05-01T12:18:37.108Z,30.96
2023-05-01T12:21:20.356Z,31.00
2023-05-01T12:23:56.392Z,30.91
2023-05-01T12:26:29.140Z,31.05
2023-05-01T12:29:04.607Z,31.55
2023-05-01T12:31:38.553Z,31.57
2023-05-01T12:34:11.100Z,31.73
2023-05-01T12:36:53.285Z,32.20
2023-05-01T12:39:27.019Z,32.67
2023-05-01T12:42:02.357Z,33.12
2023-05-01T12:44:36.291Z,32.99
2023-05-01T12:47:09.953Z,32.91
2023-05-01T12:49:42.505Z,32.20
2023-05-01T12:52:14.753Z,31.87
2023-05-01T12:54:47.129Z,31.87
2023-05-01T12:57:19.859Z,32.43
2023-05-01T13:00:03.877Z,31.41
2023-05-01T13:02:36.351Z,30.55
2023-05-01T13:05:11.212Z,29.51
2023-05-01T13:07:50.110Z,28.59
2023-05-01T13:10:32.775Z,28.01
2023-05-01T13:13:05.276Z,27.71
2023-05-01T13:15:40.450Z,26.50
2023-05-01T13:18:13.204Z,25.66
2023-05-01T13:20:49.146Z,24.85
2023-05-01T13:23:22.384Z,24.44
2023-05-01T13:26:07.041Z,24.08
2023-05-01T13:28:47.053Z,23.58
2023-05-01T13:31:19.189Z,23.14
2023-05-01T13:33:54.557Z,22.99
2023-05-01T13:36:48.848Z,22.92
2023-05-01T13:39:24.884Z,22.49
2023-05-01T13:42:04.219Z,22.13
2023-05-01T13:44:47.118Z,21.75
2023-05-01T13:47:23.356Z,21.53
2023-05-01T13:49:56.230Z,21.33
2023-05-01T13:52:28.770Z,21.15
2023-05-01T13:55:02.159Z,21.13
2023-05-01T13:57:42.539Z,21.20
2023-05-01T14:00:19.232Z,21.52
2023-05-01T14:02:53.816Z,22.36
2023-05-01T14:05:29.488Z,22.56
2023-05-01T14:08:02.508Z,22.45
2023-05-01T14:10:38.329Z,22.91
2023-05-01T14:13:10.561Z,23.40
2023-05-01T14:15:46.109Z,23.76
2023-05-01T14:18:22.935Z,23.69
2023-05-01T14:20:55.204Z,23.87
2023-05-01T14:23:28.116Z,24.23
2023-05-01T14:26:00.752Z,24.18
2023-05-01T14:28:33.180Z,24.07
2023-05-01T14:31:06.089Z,23.86
2023-05-01T14:33:43.691Z,23.43
2023-05-01T14:36:18.925Z,23.16
2023-05-01T14:38:53.583Z,22.88
2023-05-01T14:41:26.332Z,22.60
2023-05-01T14:44:01.359Z,22.25
2023-05-01T14:46:36.525Z,21.94
2023-05-01T14:49:08.846Z,21.58
2023-05-01T14:51:42.175Z,21.35
2023-05-01T14:54:15.522Z,21.17
2023-05-01T14:56:49.178Z,21.06
2023-05-01T14:59:23.112Z,21.01
2023-05-01T15:01:55.358Z,20.93
2023-05-01T15:04:28.070Z,20.98
2023-05-01T15:07:03.247Z,20.95
2023-05-01T15:09:35.581Z,20.88
2023-05-01T15:12:07.931Z,20.82
2023-05-01T15:14:40.518Z,20.87
2023-05-01T15:17:12.890Z,21.15
2023-05-01T15:19:45.357Z,21.29
2023-05-01T15:22:18.255Z,21.36
2023-05-01T15:24:50.583Z,21.25
2023-05-01T15:27:23.027Z,21.27
2023-05-01T15:29:55.403Z,21.23
2023-05-01T15:32:27.737Z,21.21
2023-05-01T15:35:00.770Z,21.16
2023-05-01T15:37:36.508Z,21.14
2023-05-01T15:40:10.229Z,21.11
2023-05-01T15:42:43.305Z,21.23
2023-05-01T15:45:16.083Z,21.15
2023-05-01T15:47:48.621Z,21.11
2023-05-01T15:50:22.075Z,21.05
2023-05-01T15:52:57.183Z,20.96
2023-05-01T15:55:29.456Z,21.09
2023-05-01T15:58:03.123Z,20.94
2023-05-01T16:00:38.396Z,20.94
2023-05-01T16:03:16.761Z,21.12
2023-05-01T16:05:52.199Z,21.05
2023-05-01T16:08:24.659Z,21.15
2023-05-01T16:11:01.286Z,21.07
2023-05-01T16:13:39.310Z,21.18
2023-05-01T16:16:27.654Z,21.15
2023-05-01T16:19:00.766Z,21.15
2023-05-01T16:21:33.227Z,20.77
2023-05-01T16:24:07.218Z,20.78
2023-05-01T16:26:41.966Z,20.66
2023-05-01T16:29:14.524Z,20.58
2023-05-01T16:31:48.904Z,20.43
2023-05-01T16:34:26.748Z,20.20
2023-05-01T16:37:07.121Z,20.02
2023-05-01T16:39:39.596Z,19.72
2023-05-01T16:42:13.722Z,19.55
2023-05-01T16:44:46.538Z,19.59
2023-05-01T16:47:19.051Z,19.49
2023-05-01T16:49:52.864Z,19.35
2023-05-01T16:52:25.261Z,19.31
2023-05-01T16:54:59.659Z,19.28
2023-05-01T16:57:32.025Z,19.21
2023-05-01T17:00:11.997Z,19.23
2023-05-01T17:02:50.092Z,19.20
2023-05-01T17:05:22.389Z,18.99
2023-05-01T17:07:54.859Z,18.98
2023-05-01T17:10:27.187Z,19.06
2023-05-01T17:13:00.799Z,18.95
2023-05-01T17:15:33.694Z,18.74
2023-05-01T17:18:06.080Z,18.77
2023-05-01T17:20:38.368Z,18.80
2023-05-01T17:23:10.949Z,18.80
2023-05-01T17:25:44.349Z,18.34
2023-05-01T17:28:17.128Z,18.41
2023-05-01T17:30:49.340Z,18.18
2023-05-01T17:33:21.794Z,18.14
2023-05-01T17:35:55.561Z,18.04
2023-05-01T17:38:27.738Z,17.99
2023-05-01T17:41:02.285Z,17.92
2023-05-01T17:43:34.482Z,17.92
2023-05-01T17:46:09.253Z,17.92
2023-05-01T17:48:44.968Z,17.75
2023-05-01T17:51:18.545Z,17.65
2023-05-01T17:53:51.023Z,17.63
2023-05-01T17:56:23.726Z,17.63
2023-05-01T17:58:57.280Z,17.62
2023-05-01T18:01:30.998Z,17.61
2023-05-01T18:04:03.683Z,17.53
2023-05-01T18:06:38.062Z,17.43
2023-05-01T18:09:10.956Z,17.43
2023-05-01T18:11:43.341Z,17.47
2023-05-01T18:14:15.782Z,17.37
2023-05-01T18:16:48.129Z,17.37
2023-05-01T18:19:21.231Z,17.18
2023-05-01T18:21:54.142Z,17.01
2023-05-01T18:24:26.371Z,16.99
2023-05-01T18:26:59.989Z,16.92
2023-05-01T18:29:32.775Z,16.84
2023-05-01T18:32:05.699Z,16.82
2023-05-01T18:34:38.388Z,16.78
2023-05-01T18:37:11.024Z,16.71
2023-05-01T18:39:47.556Z,16.64
2023-05-01T18:42:20.271Z,16.57
2023-05-01T18:44:52.547Z,16.44
2023-05-01T18:47:28.600Z,16.45
2023-05-01T18:50:01.721Z,16.43
2023-05-01T18:52:37.417Z,16.44
2023-05-01T18:55:11.940Z,16.37
2023-05-01T18:57:44.890Z,16.39
2023-05-01T19:00:17.833Z,16.34
2023-05-01T19:02:53.332Z,16.33
2023-05-01T19:05:25.821Z,16.36
2023-05-01T19:08:02.264Z,16.32
2023-05-01T19:10:36.701Z,16.25
2023-05-01T19:13:09.870Z,16.20
2023-05-01T19:15:44.053Z,16.24
2023-05-01T19:18:17.193Z,16.26
2023-05-01T19:20:49.906Z,16.24
2023-05-01T19:23:22.632Z,16.20
2023-05-01T19:25:55.464Z,16.24
2023-05-01T19:28:27.972Z,16.21
2023-05-01T19:31:00.361Z,16.21
2023-05-01T19:33:32.998Z,16.22
2023-05-01T19:36:05.740Z,16.24
2023-05-01T19:38:38.460Z,16.20
2023-05-01T19:41:11.244Z,16.24
2023-05-01T19:43:43.970Z,16.28
2023-05-01T19:46:16.770Z,16.17
2023-05-01T19:48:49.076Z,16.11
2023-05-01T19:51:21.745Z,16.14
2023-05-01T19:53:54.062Z,16.21
2023-05-01T19:56:26.488Z,16.15
2023-05-01T19:58:58.930Z,16.06
2023-05-01T20:01:31.687Z,16.07
2023-05-01T20:04:04.342Z,16.04
2023-05-01T20:06:36.706Z,16.04
2023-05-01T20:09:09.090Z,16.00
2023-05-01T20:11:41.410Z,15.95
2023-05-01T20:14:13.702Z,15.95
2023-05-01T20:16:46.378Z,15.93
2023-05-01T20:19:20.210Z,15.91
2023-05-01T20:21:52.644Z,15.89
2023-05-01T20:24:27.924Z,15.91
2023-05-01T20:27:00.459Z,15.93
2023-05-01T20:29:35.017Z,15.92
2023-05-01T20:32:07.525Z,15.93
2023-05-01T20:34:40.009Z,15.96
2023-05-01T20:37:15.136Z,15.98
2023-05-01T20:39:47.507Z,15.98
2023-05-01T20:42:19.986Z,15.99
2023-05-01T20:44:52.594Z,15.99
2023-05-01T20:47:25.556Z,15.96
2023-05-01T20:50:01.500Z,15.96
2023-05-01T20:52:34.239Z,15.93
2023-05-01T20:55:10.431Z,15.91
2023-05-01T20:57:45.265Z,15.88
2023-05-01T21:00:17.847Z,15.79
2023-05-01T21:02:52.290Z,15.75
2023-05-01T21:05:25.316Z,15.81
2023-05-01T21:07:58.566Z,15.74
2023-05-01T21:10:31.880Z,15.73
2023-05-01T21:13:04.332Z,15.69
2023-05-01T21:15:41.545Z,15.63
2023-05-01T21:18:20.495Z,15.59
2023-05-01T21:20:53.186Z,15.55
2023-05-01T21:23:26.767Z,15.55
2023-05-01T21:26:08.402Z,15.57
2023-05-01T21:28:46.612Z,15.55
2023-05-01T21:31:19.056Z,15.53
2023-05-01T21:33:51.488Z,15.51
2023-05-01T21:36:23.737Z,15.49
2023-05-01T21:38:58.435Z,15.43
2023-05-01T21:41:33.424Z,15.33
2023-05-01T21:44:06.253Z,15.30
2023-05-01T21:46:39.267Z,15.29
2023-05-01T21:49:21.030Z,15.31
2023-05-01T21:51:54.492Z,15.33
2023-05-01T21:54:28.467Z,15.32
2023-05-01T21:57:02.955Z,15.36
2023-05-01T21:59:39.293Z,15.37
2023-05-01T22:02:12.944Z,15.39
2023-05-01T22:04:45.174Z,15.31
2023-05-01T22:07:17.566Z,15.24
2023-05-01T22:09:49.977Z,15.26
2023-05-01T22:12:22.218Z,15.16
2023-05-01T22:14:54.476Z,15.23
2023-05-01T22:17:26.873Z,15.23
2023-05-01T22:19:59.632Z,15.31
2023-05-01T22:22:36.552Z,15.30
2023-05-01T22:25:10.396Z,15.26
2023-05-01T22:27:42.843Z,15.19
2023-05-01T22:30:15.096Z,15.12
2023-05-01T22:32:47.561Z,15.00
2023-05-01T22:35:20.216Z,15.03
2023-05-01T22:37:55.330Z,14.96
2023-05-01T22:40:29.305Z,14.94
2023-05-01T22:43:15.828Z,14.86
2023-05-01T22:45:51.233Z,14.79
2023-05-01T22:48:23.566Z,14.75
2023-05-01T22:50:55.770Z,14.75
2023-05-01T22:53:28.975Z,14.69
2023-05-01T22:56:01.281Z,14.71
2023-05-01T22:58:36.182Z,14.80
2023-05-01T23:01:08.621Z,14.71
2023-05-01T23:03:41.173Z,14.71
2023-05-01T23:06:13.671Z,14.61
2023-05-01T23:08:46.216Z,14.61
2023-05-01T23:11:19.243Z,14.66
2023-05-01T23:13:51.686Z,14.63
2023-05-01T23:16:23.922Z,14.58
2023-05-01T23:18:56.974Z,14.45
2023-05-01T23:21:39.351Z,14.39
2023-05-01T23:24:17.135Z,14.40
2023-05-01T23:26:49.410Z,14.34
2023-05-01T23:29:22.468Z,14.37
2023-05-01T23:31:55.278Z,14.14
2023-05-01T23:34:29.261Z,14.17
2023-05-01T23:37:01.754Z,14.16
2023-05-01T23:39:33.957Z,14.17
2023-05-01T23:42:07.353Z,14.18
2023-05-01T23:44:39.749Z,14.23
2023-05-01T23:47:12.260Z,14.15
2023-05-01T23:49:44.652Z,14.19
2023-05-01T23:52:18.728Z,14.09
2023-05-01T23:54:51.092Z,14.11
2023-05-01T23:57:23.652Z,14.21
2023-05-01T23:59:56.367Z,14.18
